Time;durP1;ratioP1;P1;durP2;ratioP2;P2;SDS_P1;SDS_P2;PMS_P1;PMS_P2;Temp;Humidity;BMP_temperature;BMP_pressure;BME280_temperature;BME280_humidity;BME280_pressure;Samples;Min_cycle;Max_cycle;Signal;HPM_P1;HPM_P2
2023/01/27 00:02:14;;;;;;;11.00;2.47;;;26.00;99.90;;;;;;4998424;28;20228;-82
2023/01/27 00:04:41;;;;;;;10.77;1.97;;;26.20;99.90;;;;;;5017782;28;20182;-83
2023/01/27 00:07:08;;;;;;;11.87;2.00;;;26.30;99.90;;;;;;5016188;28;20198;-83
2023/01/27 00:09:36;;;;;;;4.87;1.40;;;26.40;99.90;;;;;;5008174;28;20665;-82
2023/01/27 00:14:49;;;;;;;7.67;1.77;;;26.90;99.90;;;;;;5016134;28;20185;-80
2023/01/27 00:17:16;;;;;;;6.23;1.60;;;27.30;99.90;;;;;;5016459;28;20271;-82
2023/01/27 00:19:43;;;;;;;5.53;1.70;;;27.50;99.90;;;;;;5023999;28;20173;-81
2023/01/27 00:24:59;;;;;;;6.50;1.60;;;27.90;99.90;;;;;;5018375;28;20201;-83
2023/01/27 00:27:27;;;;;;;5.97;1.80;;;28.20;99.90;;;;;;4995998;28;20230;-85
2023/01/27 00:29:54;;;;;;;3.50;1.30;;;28.80;99.90;;;;;;4995344;28;20248;-81
2023/01/27 00:35:07;;;;;;;4.93;1.30;;;29.70;99.90;;;;;;4996376;28;20205;-80
2023/01/27 00:37:35;;;;;;;6.37;1.50;;;29.70;99.90;;;;;;4996445;28;20189;-83
2023/01/27 00:40:02;;;;;;;3.23;1.30;;;29.80;99.90;;;;;;4996065;28;20182;-81
2023/01/27 00:42:30;;;;;;;9.13;1.80;;;29.90;99.90;;;;;;4978317;28;20668;-82
2023/01/27 00:47:43;;;;;;;6.73;1.37;;;30.10;99.90;;;;;;4994497;28;20193;-81
2023/01/27 00:50:11;;;;;;;9.43;1.90;;;30.20;99.90;;;;;;4994860;28;20186;-82
2023/01/27 00:52:38;;;;;;;11.10;2.27;;;30.20;99.90;;;;;;4995403;28;20190;-84
2023/01/27 00:55:07;;;;;;;4.70;1.50;;;30.20;99.90;;;;;;4995493;28;20191;-84
2023/01/27 00:57:34;;;;;;;6.23;1.83;;;30.30;99.90;;;;;;4995170;28;20186;-82
2023/01/27 01:00:02;;;;;;;4.53;1.50;;;30.10;99.90;;;;;;4995300;28;20186;-85
2023/01/27 01:02:29;;;;;;;8.07;1.80;;;30.20;99.90;;;;;;4995771;28;20623;-84
2023/01/27 01:04:57;;;;;;;7.17;2.23;;;30.40;99.90;;;;;;4999774;28;20814;-85
2023/01/27 01:07:24;;;;;;;5.22;1.70;;;30.70;99.90;;;;;;4999787;28;20229;-83
2023/01/27 01:09:52;;;;;;;5.53;2.03;;;31.10;99.90;;;;;;4995375;28;20183;-80
2023/01/27 01:12:19;;;;;;;7.70;1.83;;;31.70;99.90;;;;;;4994707;28;20175;-83
2023/01/27 01:14:47;;;;;;;4.53;1.60;;;31.40;99.90;;;;;;4995347;28;20178;-81
2023/01/27 01:17:14;;;;;;;5.27;2.13;;;30.60;99.90;;;;;;4993384;28;20183;-84
2023/01/27 01:19:42;;;;;;;4.32;1.60;;;30.00;99.90;;;;;;4992978;28;20628;-82
2023/01/27 01:22:09;;;;;;;9.53;1.90;;;29.50;99.90;;;;;;4994391;28;20206;-85
2023/01/27 01:24:36;;;;;;;5.97;2.10;;;29.40;99.90;;;;;;4995111;28;20186;-83
2023/01/27 01:27:04;;;;;;;3.97;1.60;;;29.20;99.90;;;;;;4999271;28;20588;-84
2023/01/27 01:29:31;;;;;;;4.87;1.80;;;28.80;99.90;;;;;;5014475;28;20182;-83
2023/01/27 01:31:59;;;;;;;5.13;1.40;;;28.50;99.90;;;;;;5014412;28;20658;-82
2023/01/27 01:34:26;;;;;;;5.37;2.17;;;28.40;99.90;;;;;;5013973;28;20186;-88
2023/01/27 01:36:54;;;;;;;8.37;1.63;;;28.30;99.90;;;;;;4996479;28;20705;-85
2023/01/27 01:39:21;;;;;;;7.20;1.93;;;28.10;99.90;;;;;;5014768;28;20233;-84
2023/01/27 01:41:48;;;;;;;3.80;1.37;;;28.00;99.90;;;;;;5013631;28;20224;-82
2023/01/27 01:44:23;;;;;;;4.07;1.40;;;27.90;99.90;;;;;;5014206;28;20189;-84
2023/01/27 01:46:51;;;;;;;6.07;1.70;;;27.80;99.90;;;;;;5014219;28;20202;-84
2023/01/27 01:49:23;;;;;;;7.67;2.20;;;27.70;99.90;;;;;;5014049;28;20177;-88
2023/01/27 01:51:55;;;;;;;4.40;1.80;;;27.60;99.90;;;;;;5014743;28;20185;-86
2023/01/27 01:54:26;;;;;;;6.70;2.20;;;27.60;99.90;;;;;;5014850;28;20543;-85
2023/01/27 01:57:20;;;;;;;3.73;1.73;;;27.60;99.90;;;;;;5014130;28;20269;-86
2023/01/27 01:59:52;;;;;;;7.67;1.73;;;27.60;99.90;;;;;;5014196;28;20202;-86
2023/01/27 02:02:23;;;;;;;7.53;1.87;;;27.80;99.90;;;;;;5014394;28;20217;-88
2023/01/27 02:05:23;;;;;;;5.83;1.80;;;27.80;99.90;;;;;;5014099;28;20652;-83
2023/01/27 02:08:14;;;;;;;5.33;2.43;;;27.90;99.90;;;;;;5009568;28;20194;-86
2023/01/27 02:10:41;;;;;;;4.33;1.50;;;27.90;99.90;;;;;;5014433;28;20209;-82
2023/01/27 02:13:09;;;;;;;8.80;2.03;;;28.00;99.90;;;;;;5021957;28;20589;-81
2023/01/27 02:15:37;;;;;;;2.73;1.70;;;28.10;99.90;;;;;;5023451;28;20221;-87
2023/01/27 02:18:05;;;;;;;2.90;1.43;;;28.30;99.90;;;;;;5017714;28;20182;-85
2023/01/27 02:20:44;;;;;;;7.80;2.30;;;28.40;99.90;;;;;;5014648;28;20186;-86
2023/01/27 02:23:47;;;;;;;9.33;2.07;;;28.60;99.90;;;;;;5013439;28;20559;-86
2023/01/27 02:26:17;;;;;;;9.50;3.20;;;29.10;99.90;;;;;;4996399;28;20207;-84
2023/01/27 02:28:45;;;;;;;4.40;1.67;;;29.10;99.90;;;;;;5013366;28;20237;-85
2023/01/27 02:31:12;;;;;;;6.70;1.83;;;29.20;99.90;;;;;;5013202;28;20193;-84
2023/01/27 02:33:40;;;;;;;7.20;1.60;;;29.10;99.90;;;;;;4996796;28;20193;-83
2023/01/27 02:36:14;;;;;;;5.63;1.67;;;28.90;99.90;;;;;;5021371;28;20181;-84
2023/01/27 02:38:52;;;;;;;6.70;1.60;;;28.70;99.90;;;;;;5013239;28;20197;-82
2023/01/27 02:41:31;;;;;;;5.27;1.87;;;28.50;99.90;;;;;;5014888;28;20186;-85
2023/01/27 02:43:59;;;;;;;5.00;1.40;;;28.30;99.90;;;;;;5004796;28;20212;-81
2023/01/27 02:46:27;;;;;;;7.63;2.17;;;28.20;99.90;;;;;;4995532;28;20186;-83
2023/01/27 02:48:54;;;;;;;4.73;1.80;;;28.00;99.90;;;;;;5012399;28;20209;-81
2023/01/27 02:51:22;;;;;;;7.43;1.70;;;27.90;99.90;;;;;;5013624;28;20189;-81
2023/01/27 02:53:49;;;;;;;8.90;2.00;;;27.80;99.90;;;;;;5013236;28;20546;-80
2023/01/27 02:56:17;;;;;;;4.10;1.77;;;27.70;99.90;;;;;;4995020;28;20177;-84
2023/01/27 02:58:45;;;;;;;8.40;2.03;;;27.80;99.90;;;;;;5012705;28;20189;-83
2023/01/27 03:01:14;;;;;;;5.97;2.20;;;27.60;99.90;;;;;;4994596;28;20197;-84
2023/01/27 03:03:45;;;;;;;15.40;2.73;;;27.60;99.90;;;;;;5012352;28;20216;-83
2023/01/27 03:06:17;;;;;;;6.77;2.20;;;27.50;99.90;;;;;;5012985;28;20204;-84
2023/01/27 03:08:45;;;;;;;7.73;2.00;;;27.80;99.90;;;;;;5012110;28;20197;-85
2023/01/27 03:11:12;;;;;;;9.47;1.87;;;27.80;99.90;;;;;;5012110;28;20206;-84
2023/01/27 03:13:40;;;;;;;4.07;1.30;;;27.80;99.90;;;;;;5013162;28;20716;-83
2023/01/27 03:18:56;;;;;;;4.57;1.70;;;28.00;99.90;;;;;;5000784;28;20178;-79
2023/01/27 03:21:23;;;;;;;5.97;1.83;;;28.10;99.90;;;;;;5010749;28;20647;-81
2023/01/27 03:23:51;;;;;;;8.40;1.83;;;28.40;99.90;;;;;;5013217;28;20224;-83
2023/01/27 03:26:18;;;;;;;8.23;1.63;;;28.90;99.90;;;;;;5012347;28;20266;-83
2023/01/27 03:29:53;;;;;;;6.70;1.77;;;29.60;99.90;;;;;;5012657;28;20233;-82
2023/01/27 03:31:33;;;;;;;6.17;1.37;;;30.40;99.90;;;;;;5012379;28;20236;-83
2023/01/27 03:34:00;;;;;;;5.27;1.70;;;30.70;99.90;;;;;;5012705;28;20239;-83
2023/01/27 03:47:29;;;;;;;9.70;2.30;;;30.20;99.90;;;;;;5012320;28;20210;-84
2023/01/27 03:49:56;;;;;;;5.93;1.97;;;30.10;99.90;;;;;;5013510;28;20174;-84
2023/01/27 03:52:24;;;;;;;9.30;2.23;;;29.90;99.90;;;;;;5014841;28;20190;-85
2023/01/27 03:54:51;;;;;;;19.57;3.00;;;29.50;99.90;;;;;;5014001;28;20177;-84
2023/01/27 03:57:18;;;;;;;7.33;1.60;;;29.50;99.90;;;;;;5014294;28;20273;-85
2023/01/27 03:59:46;;;;;;;7.00;1.70;;;29.80;99.90;;;;;;5016081;28;20244;-84
2023/01/27 04:07:43;;;;;;;6.37;2.07;;;31.40;99.90;;;;;;5019395;28;20221;-79
2023/01/27 04:10:11;;;;;;;5.55;1.55;;;31.40;99.90;;;;;;4999923;28;20584;-77
2023/01/27 04:12:38;;;;;;;10.45;2.25;;;31.90;99.90;;;;;;5014513;28;20213;-81
2023/01/27 04:15:07;;;;;;;3.17;1.30;;;31.40;99.90;;;;;;5001980;28;20229;-75
2023/01/27 04:17:37;;;;;;;5.93;1.97;;;31.10;99.90;;;;;;5009628;28;20197;-77
2023/01/27 04:20:08;;;;;;;6.30;2.30;;;31.40;99.90;;;;;;5012472;28;20225;-81
2023/01/27 04:22:35;;;;;;;8.20;2.33;;;31.80;99.90;;;;;;5014508;28;20209;-79
2023/01/27 04:25:03;;;;;;;5.28;1.95;;;31.90;99.90;;;;;;5014908;28;20174;-79
2023/01/27 04:27:30;;;;;;;7.00;2.33;;;31.80;99.90;;;;;;5014933;28;20221;-83
2023/01/27 04:29:58;;;;;;;4.53;2.20;;;32.00;99.90;;;;;;4997590;28;20178;-73
2023/01/27 04:32:26;;;;;;;7.70;1.90;;;32.20;99.90;;;;;;5014472;28;20186;-78
2023/01/27 04:34:53;;;;;;;7.68;2.22;;;32.80;99.90;;;;;;5015451;28;20644;-79
2023/01/27 04:37:21;;;;;;;5.18;2.20;;;33.00;99.90;;;;;;5008078;28;20185;-80
2023/01/27 04:39:48;;;;;;;9.23;2.33;;;33.10;99.90;;;;;;5005873;28;20307;-78
2023/01/27 04:42:15;;;;;;;7.25;1.65;;;33.20;99.90;;;;;;5014791;28;20206;-81
2023/01/27 04:44:43;;;;;;;11.18;2.10;;;33.60;99.90;;;;;;5014945;28;20645;-85
2023/01/27 04:47:10;;;;;;;6.00;1.80;;;33.70;99.90;;;;;;5014058;28;20255;-74
2023/01/27 04:49:38;;;;;;;3.90;1.50;;;33.20;99.90;;;;;;5015305;28;20174;-75
2023/01/27 04:52:05;;;;;;;3.78;1.58;;;33.30;99.90;;;;;;5014480;28;20190;-73
2023/01/27 04:54:32;;;;;;;6.13;1.65;;;32.70;99.90;;;;;;5014460;28;20182;-74
2023/01/27 04:57:04;;;;;;;9.02;1.73;;;32.50;99.90;;;;;;5008689;28;20289;-78
2023/01/27 04:59:31;;;;;;;7.60;2.20;;;32.10;99.90;;;;;;4992900;28;20174;-76
2023/01/27 05:01:59;;;;;;;9.35;2.17;;;31.40;99.90;;;;;;5002650;28;20206;-78
2023/01/27 05:04:26;;;;;;;2.85;1.52;;;31.30;99.90;;;;;;4995219;28;20179;-79
2023/01/27 05:06:54;;;;;;;7.13;1.98;;;31.30;99.90;;;;;;5005995;28;20190;-85
2023/01/27 05:09:22;;;;;;;5.88;1.25;;;31.20;99.90;;;;;;4996354;28;20178;-75
2023/01/27 05:11:49;;;;;;;8.70;1.70;;;30.90;99.90;;;;;;5008002;28;20175;-74
2023/01/27 05:14:17;;;;;;;6.97;2.00;;;30.70;99.90;;;;;;5003012;28;20186;-73
2023/01/27 05:16:44;;;;;;;6.13;2.30;;;30.80;99.90;;;;;;4995841;28;20574;-76
2023/01/27 05:19:11;;;;;;;6.07;1.70;;;30.70;99.90;;;;;;5014430;28;20260;-76
2023/01/27 05:21:39;;;;;;;6.87;1.87;;;30.60;99.90;;;;;;5013952;28;20350;-75
2023/01/27 05:24:06;;;;;;;6.57;2.13;;;30.70;99.90;;;;;;5014637;28;20182;-73
2023/01/27 05:26:34;;;;;;;9.63;1.70;;;30.70;99.90;;;;;;5013717;28;20182;-76
2023/01/27 05:29:01;;;;;;;6.97;1.80;;;30.80;99.90;;;;;;5010481;28;20175;-73
2023/01/27 05:31:33;;;;;;;7.33;1.80;;;30.70;99.90;;;;;;4995540;28;20186;-78
2023/01/27 05:34:01;;;;;;;9.40;1.90;;;30.30;99.90;;;;;;5014343;28;20224;-76
2023/01/27 05:36:30;;;;;;;5.33;1.53;;;30.10;99.90;;;;;;5014525;28;20205;-81
2023/01/27 05:38:58;;;;;;;5.50;1.70;;;30.10;99.90;;;;;;4995293;28;20189;-82
2023/01/27 05:41:27;;;;;;;6.97;1.47;;;30.00;99.90;;;;;;4995609;28;20655;-74
2023/01/27 05:43:56;;;;;;;5.77;1.87;;;29.90;99.90;;;;;;4994167;28;20237;-75
2023/01/27 05:46:26;;;;;;;4.63;1.67;;;29.80;99.90;;;;;;5005188;28;20182;-74
2023/01/27 05:48:56;;;;;;;6.13;1.70;;;29.60;99.90;;;;;;5008460;28;20192;-76
2023/01/27 05:51:25;;;;;;;4.40;1.70;;;29.50;99.90;;;;;;5008060;28;20185;-77
2023/01/27 05:53:54;;;;;;;7.03;1.87;;;29.40;99.90;;;;;;5017861;28;20177;-77
2023/01/27 05:56:24;;;;;;;5.00;1.47;;;29.40;99.90;;;;;;5014275;28;20602;-79
2023/01/27 05:58:54;;;;;;;4.50;1.70;;;29.60;99.90;;;;;;5013573;28;20193;-78
2023/01/27 06:01:23;;;;;;;6.57;1.73;;;29.50;99.90;;;;;;5013613;28;20293;-80
2023/01/27 06:03:51;;;;;;;5.00;1.70;;;29.30;99.90;;;;;;5013043;28;20224;-76
2023/01/27 06:06:20;;;;;;;7.07;1.60;;;29.30;99.90;;;;;;5013522;28;20189;-77
2023/01/27 06:08:48;;;;;;;8.93;2.40;;;29.40;99.90;;;;;;5013043;28;20249;-78
2023/01/27 06:11:18;;;;;;;6.20;1.83;;;29.10;99.90;;;;;;5013032;28;20546;-80
2023/01/27 06:13:47;;;;;;;7.77;1.70;;;29.10;99.90;;;;;;5013537;28;20273;-80
2023/01/27 06:16:19;;;;;;;5.17;1.60;;;29.00;99.90;;;;;;5013086;28;20190;-86
2023/01/27 06:18:47;;;;;;;4.93;1.73;;;28.90;99.90;;;;;;5013383;28;20186;-77
2023/01/27 06:21:16;;;;;;;7.30;1.67;;;28.70;99.90;;;;;;5014239;28;20592;-76
2023/01/27 06:23:44;;;;;;;7.27;1.60;;;28.40;99.90;;;;;;5015684;28;20555;-79
2023/01/27 06:26:15;;;;;;;6.30;1.90;;;28.40;99.90;;;;;;5014040;28;20637;-87
2023/01/27 06:28:43;;;;;;;6.03;2.07;;;28.40;99.90;;;;;;5012414;28;20237;-82
2023/01/27 06:31:22;;;;;;;8.80;1.60;;;28.30;99.90;;;;;;5013146;28;20272;-80
2023/01/27 06:33:50;;;;;;;10.13;2.07;;;28.20;99.90;;;;;;5012886;28;20260;-81
2023/01/27 06:36:20;;;;;;;7.40;1.77;;;28.20;99.90;;;;;;5013324;28;20546;-79
2023/01/27 06:38:48;;;;;;;7.33;2.20;;;28.20;99.90;;;;;;5012611;28;20674;-82
2023/01/27 06:41:16;;;;;;;10.10;2.30;;;28.10;99.90;;;;;;5012869;28;20193;-85
2023/01/27 06:43:43;;;;;;;8.13;2.23;;;28.00;99.90;;;;;;4994827;28;20218;-84
2023/01/27 06:46:11;;;;;;;8.07;2.07;;;27.90;99.90;;;;;;5012827;28;20193;-86
2023/01/27 06:48:38;;;;;;;7.27;1.97;;;27.90;99.90;;;;;;5012949;28;20206;-85
2023/01/27 06:51:06;;;;;;;10.47;2.13;;;27.90;99.90;;;;;;4995327;28;20243;-84
2023/01/27 06:53:36;;;;;;;7.50;2.27;;;27.90;99.90;;;;;;5012507;28;20530;-76
2023/01/27 06:56:03;;;;;;;10.10;2.07;;;27.70;99.90;;;;;;5012274;28;20186;-77
2023/01/27 06:58:31;;;;;;;7.90;2.17;;;27.60;99.90;;;;;;5012507;28;20189;-79
2023/01/27 07:00:59;;;;;;;7.97;1.73;;;27.70;99.90;;;;;;5012207;28;20232;-77
2023/01/27 07:03:26;;;;;;;11.13;2.80;;;27.80;99.90;;;;;;4994763;28;20222;-80
2023/01/27 07:05:54;;;;;;;10.60;2.77;;;27.70;99.90;;;;;;5012558;28;20178;-79
2023/01/27 07:08:21;;;;;;;10.87;2.77;;;27.50;99.90;;;;;;5012045;28;20204;-87
2023/01/27 07:10:49;;;;;;;9.37;2.10;;;27.50;99.90;;;;;;4994568;28;20209;-80
2023/01/27 07:13:17;;;;;;;10.30;1.90;;;27.50;99.90;;;;;;5012728;28;20208;-84
2023/01/27 07:15:45;;;;;;;12.77;2.90;;;27.70;99.90;;;;;;4998380;28;20183;-76
2023/01/27 07:18:13;;;;;;;8.17;2.30;;;27.80;99.90;;;;;;4994648;28;20197;-81
2023/01/27 07:20:41;;;;;;;9.43;2.37;;;27.70;99.90;;;;;;5012359;28;20178;-81
2023/01/27 07:23:10;;;;;;;11.10;2.47;;;27.60;99.90;;;;;;4994317;28;20220;-84
2023/01/27 07:25:38;;;;;;;9.67;2.73;;;27.20;99.90;;;;;;4994948;28;20536;-86
2023/01/27 07:28:06;;;;;;;10.80;2.57;;;27.00;99.90;;;;;;5011828;28;20236;-78
2023/01/27 07:30:34;;;;;;;11.73;2.80;;;26.70;99.90;;;;;;5012186;28;20265;-77
2023/01/27 07:33:11;;;;;;;10.13;2.63;;;26.60;99.90;;;;;;5012306;28;20178;-82
2023/01/27 07:35:41;;;;;;;15.43;2.73;;;26.50;99.90;;;;;;5011200;28;20655;-86
2023/01/27 07:38:09;;;;;;;6.97;2.50;;;26.50;99.90;;;;;;5012770;28;20193;-78
2023/01/27 07:40:37;;;;;;;11.60;3.03;;;26.40;99.90;;;;;;4995041;28;20190;-85
2023/01/27 07:43:04;;;;;;;8.70;2.80;;;26.30;99.90;;;;;;5018152;28;20242;-81
2023/01/27 07:45:32;;;;;;;13.10;3.10;;;26.30;99.90;;;;;;5023668;28;20212;-77
2023/01/27 07:48:05;;;;;;;10.13;2.80;;;26.20;99.90;;;;;;5011986;28;20272;-79
2023/01/27 07:50:33;;;;;;;13.93;3.03;;;26.30;99.90;;;;;;4994270;28;20317;-79
2023/01/27 07:53:03;;;;;;;13.63;2.70;;;26.30;99.90;;;;;;4993934;28;20186;-79
2023/01/27 07:55:31;;;;;;;14.03;3.37;;;26.20;99.90;;;;;;5011717;28;20601;-80
2023/01/27 07:57:59;;;;;;;8.80;2.07;;;26.20;99.90;;;;;;5015334;28;20513;-79
2023/01/27 08:00:27;;;;;;;11.97;3.10;;;26.10;99.90;;;;;;5014791;28;20209;-77
2023/01/27 08:02:56;;;;;;;11.93;2.57;;;26.10;99.90;;;;;;4997961;28;20691;-73
2023/01/27 08:05:25;;;;;;;14.60;2.93;;;26.00;99.90;;;;;;5015309;28;20269;-77
2023/01/27 08:07:53;;;;;;;9.27;2.57;;;26.00;99.90;;;;;;4997254;28;20186;-82
2023/01/27 08:10:21;;;;;;;10.17;3.13;;;26.00;99.90;;;;;;5015630;28;20185;-82
2023/01/27 08:12:48;;;;;;;10.00;2.63;;;26.00;99.90;;;;;;5014953;28;20182;-86
2023/01/27 08:15:16;;;;;;;12.27;3.10;;;25.90;99.90;;;;;;5015273;28;20659;-85
2023/01/27 08:17:43;;;;;;;10.50;3.50;;;25.90;99.90;;;;;;4998360;28;20185;-83
2023/01/27 08:20:11;;;;;;;14.80;3.23;;;26.00;99.90;;;;;;5015459;28;20205;-83
2023/01/27 08:22:39;;;;;;;12.03;3.10;;;25.90;99.90;;;;;;5015462;28;20676;-78
2023/01/27 08:25:07;;;;;;;8.23;2.30;;;25.90;99.90;;;;;;5015946;28;20189;-75
2023/01/27 08:27:34;;;;;;;10.40;2.47;;;25.80;99.90;;;;;;5015244;28;20615;-81
2023/01/27 08:30:02;;;;;;;9.87;2.23;;;25.80;99.90;;;;;;5016482;28;20178;-83
2023/01/27 08:32:29;;;;;;;13.03;2.93;;;25.70;99.90;;;;;;5016170;28;20644;-86
2023/01/27 08:34:56;;;;;;;15.10;3.00;;;25.70;99.90;;;;;;5015949;28;20272;-84
2023/01/27 08:37:24;;;;;;;14.80;2.93;;;25.60;99.90;;;;;;5016540;28;20185;-79
2023/01/27 08:39:51;;;;;;;5.93;2.27;;;25.70;99.90;;;;;;5016554;28;20543;-84
2023/01/27 08:42:20;;;;;;;15.90;2.87;;;25.60;99.90;;;;;;5015912;28;20202;-85
2023/01/27 08:44:47;;;;;;;14.97;3.13;;;25.60;99.90;;;;;;5016583;28;20682;-81
2023/01/27 08:47:15;;;;;;;8.80;3.03;;;25.50;99.90;;;;;;5016052;28;20247;-82
2023/01/27 08:49:42;;;;;;;10.27;2.50;;;25.40;99.90;;;;;;4998842;28;20189;-85
2023/01/27 08:52:09;;;;;;;10.03;2.50;;;25.30;99.90;;;;;;5016211;28;20201;-86
2023/01/27 08:54:37;;;;;;;9.03;2.60;;;25.30;99.90;;;;;;5015794;28;20194;-86
2023/01/27 08:57:04;;;;;;;16.00;2.97;;;25.20;99.90;;;;;;5015566;28;20177;-88
2023/01/27 08:59:31;;;;;;;8.83;2.70;;;25.20;99.90;;;;;;5017919;28;20178;-76
2023/01/27 09:01:59;;;;;;;10.07;2.50;;;25.20;99.90;;;;;;5020437;28;20289;-82
2023/01/27 09:04:28;;;;;;;8.57;2.43;;;25.20;99.90;;;;;;5007647;28;20182;-85
2023/01/27 09:06:55;;;;;;;13.23;2.70;;;25.20;99.90;;;;;;5024314;28;20257;-85
2023/01/27 09:09:22;;;;;;;10.07;3.13;;;25.30;99.90;;;;;;5024102;28;20193;-85
2023/01/27 09:11:50;;;;;;;9.33;2.73;;;25.20;99.90;;;;;;5028312;28;20178;-77
2023/01/27 09:14:19;;;;;;;12.13;2.60;;;25.20;99.90;;;;;;5026214;28;20177;-83
2023/01/27 09:16:46;;;;;;;13.00;3.07;;;25.20;99.90;;;;;;5024093;28;20623;-83
2023/01/27 09:19:17;;;;;;;8.27;2.90;;;25.10;99.90;;;;;;5024279;28;20185;-86
2023/01/27 09:21:45;;;;;;;12.60;2.77;;;25.00;99.90;;;;;;5020713;28;20216;-86
2023/01/27 09:24:16;;;;;;;12.20;3.10;;;25.00;99.90;;;;;;5019413;28;20287;-84
2023/01/27 09:26:44;;;;;;;14.97;3.23;;;25.00;99.90;;;;;;5020012;28;20189;-87
2023/01/27 09:29:12;;;;;;;14.73;2.80;;;25.00;99.90;;;;;;5019144;28;20273;-86
2023/01/27 09:31:39;;;;;;;13.90;3.30;;;25.00;99.90;;;;;;5018398;28;20198;-84
2023/01/27 09:34:07;;;;;;;13.17;2.30;;;24.90;99.90;;;;;;5018276;28;20597;-84
2023/01/27 09:36:40;;;;;;;17.30;2.73;;;24.80;99.90;;;;;;5019093;28;20173;-86
2023/01/27 09:39:08;;;;;;;14.00;2.90;;;24.80;99.90;;;;;;5023372;28;20250;-85
2023/01/27 09:41:47;;;;;;;10.73;2.43;;;24.80;99.90;;;;;;5025574;28;20170;-84
2023/01/27 09:44:53;;;;;;;6.13;2.00;;;24.80;99.90;;;;;;5002682;28;20186;-86
2023/01/27 09:47:39;;;;;;;11.13;2.67;;;24.90;99.90;;;;;;5027018;28;20178;-87
2023/01/27 09:50:20;;;;;;;9.77;2.90;;;24.90;99.90;;;;;;5026050;28;20271;-84
2023/01/27 09:53:15;;;;;;;10.90;2.90;;;24.70;99.90;;;;;;5025823;28;20182;-85
2023/01/27 09:56:01;;;;;;;10.17;2.20;;;24.80;99.90;;;;;;4988669;28;20579;-85
2023/01/27 09:58:55;;;;;;;11.67;2.90;;;24.70;99.90;;;;;;4986813;28;20194;-86
2023/01/27 10:01:41;;;;;;;10.70;2.47;;;24.70;99.90;;;;;;5002628;28;20186;-84
2023/01/27 10:04:15;;;;;;;10.00;2.70;;;24.60;99.90;;;;;;5016550;28;20554;-83
2023/01/27 10:06:45;;;;;;;12.37;3.30;;;24.60;99.90;;;;;;5020196;28;20177;-86
2023/01/27 10:09:43;;;;;;;14.17;3.10;;;24.60;99.90;;;;;;5020952;28;20181;-85
2023/01/27 10:12:45;;;;;;;9.73;2.30;;;24.70;99.90;;;;;;5021068;28;20237;-87
2023/01/27 10:15:30;;;;;;;8.80;2.60;;;24.70;99.90;;;;;;5007232;28;20197;-86
2023/01/27 10:18:27;;;;;;;5.57;2.30;;;24.70;99.90;;;;;;5021749;28;20550;-84
2023/01/27 10:21:28;;;;;;;11.40;2.67;;;24.60;99.90;;;;;;5012717;28;20194;-81
2023/01/27 10:24:15;;;;;;;12.00;2.60;;;24.50;99.90;;;;;;5022308;28;20196;-79
2023/01/27 10:26:56;;;;;;;12.57;3.27;;;24.60;99.90;;;;;;5002821;28;20195;-83
2023/01/27 10:29:46;;;;;;;11.07;2.50;;;24.60;99.90;;;;;;5019776;28;20256;-87
2023/01/27 10:32:41;;;;;;;7.47;2.40;;;24.60;99.90;;;;;;5017937;28;20538;-84
2023/01/27 10:35:19;;;;;;;11.53;2.80;;;24.50;99.90;;;;;;4996430;28;20197;-86
2023/01/27 10:38:06;;;;;;;10.27;2.90;;;24.40;99.90;;;;;;5013486;28;20596;-85
2023/01/27 10:40:53;;;;;;;16.00;3.40;;;24.50;99.90;;;;;;5013039;28;20182;-87
2023/01/27 10:43:23;;;;;;;15.67;3.67;;;24.50;99.90;;;;;;5013538;28;20205;-86
2023/01/27 10:46:21;;;;;;;7.73;2.40;;;24.50;99.90;;;;;;5013519;28;20201;-78
2023/01/27 10:48:57;;;;;;;8.87;3.23;;;24.40;99.90;;;;;;4976583;28;20201;-83
2023/01/27 10:51:28;;;;;;;14.27;2.70;;;24.40;99.90;;;;;;4993895;28;20272;-85
2023/01/27 10:54:14;;;;;;;9.50;2.63;;;24.40;99.90;;;;;;5007474;28;20271;-85
2023/01/27 10:56:44;;;;;;;11.07;2.93;;;24.40;99.90;;;;;;5013415;28;20206;-87
2023/01/27 10:59:34;;;;;;;8.50;2.50;;;24.50;99.90;;;;;;4995985;28;20651;-83
2023/01/27 11:02:23;;;;;;;10.60;2.67;;;24.50;99.90;;;;;;4976516;28;20234;-81
2023/01/27 11:04:58;;;;;;;17.60;3.20;;;24.50;99.90;;;;;;5012937;28;20240;-77
2023/01/27 11:07:26;;;;;;;8.10;2.87;;;24.40;99.90;;;;;;5013075;28;20193;-81
2023/01/27 11:10:03;;;;;;;11.30;2.50;;;24.30;99.90;;;;;;5012449;28;20189;-86
2023/01/27 11:12:40;;;;;;;15.20;2.53;;;24.30;99.90;;;;;;5012968;28;20181;-82
2023/01/27 11:15:17;;;;;;;11.07;2.33;;;24.30;99.90;;;;;;4995408;28;20283;-85
2023/01/27 11:17:52;;;;;;;9.53;2.57;;;24.20;99.90;;;;;;5013272;28;20269;-84
2023/01/27 11:20:52;;;;;;;11.80;3.10;;;24.20;99.90;;;;;;4996271;28;20185;-84
2023/01/27 11:23:26;;;;;;;10.93;2.97;;;24.20;99.90;;;;;;4994809;28;20694;-84
2023/01/27 11:25:59;;;;;;;14.33;3.23;;;24.10;99.90;;;;;;4995476;28;20207;-82
2023/01/27 11:28:45;;;;;;;9.50;2.57;;;24.20;99.90;;;;;;5013326;28;20230;-85
2023/01/27 11:31:56;;;;;;;12.67;2.53;;;24.20;99.90;;;;;;5015485;28;20174;-81
2023/01/27 11:34:27;;;;;;;13.93;2.60;;;24.00;99.90;;;;;;4952955;28;20205;-81
2023/01/27 11:36:54;;;;;;;13.83;3.10;;;23.90;99.90;;;;;;5022325;28;20177;-85
2023/01/27 11:39:22;;;;;;;9.67;2.83;;;23.90;99.90;;;;;;5016892;28;20177;-80
2023/01/27 11:41:58;;;;;;;13.83;3.13;;;23.90;99.90;;;;;;5017067;28;20544;-84
2023/01/27 11:44:31;;;;;;;15.80;2.93;;;23.90;99.90;;;;;;5017150;28;20213;-85
2023/01/27 11:46:59;;;;;;;11.50;3.03;;;23.90;99.90;;;;;;5018155;28;20182;-84
2023/01/27 11:49:28;;;;;;;10.83;2.87;;;23.90;99.90;;;;;;5019422;28;20321;-84
2023/01/27 11:52:25;;;;;;;10.90;3.03;;;23.90;99.90;;;;;;5017562;28;20189;-84
2023/01/27 11:55:14;;;;;;;13.80;2.60;;;23.90;99.90;;;;;;5018050;28;20181;-85
2023/01/27 11:58:11;;;;;;;12.33;3.67;;;23.80;99.90;;;;;;5004069;28;20178;-79
2023/01/27 12:00:46;;;;;;;15.07;2.80;;;23.70;99.90;;;;;;4998983;28;20709;-86
2023/01/27 12:03:55;;;;;;;14.47;3.10;;;23.70;99.90;;;;;;4997907;28;20284;-86
2023/01/27 12:06:42;;;;;;;10.37;2.90;;;23.60;99.90;;;;;;4991176;28;20220;-84
2023/01/27 12:09:33;;;;;;;10.10;2.73;;;23.60;99.90;;;;;;4993602;28;20197;-86
2023/01/27 12:12:26;;;;;;;11.37;2.70;;;23.60;99.90;;;;;;5016840;28;20182;-83
2023/01/27 12:14:59;;;;;;;17.83;2.60;;;23.60;99.90;;;;;;5016772;28;20173;-84
2023/01/27 12:17:45;;;;;;;15.63;4.00;;;23.60;99.90;;;;;;5016314;28;20189;-82
2023/01/27 12:20:24;;;;;;;14.57;2.77;;;23.60;99.90;;;;;;5016063;28;20236;-73
2023/01/27 12:22:59;;;;;;;8.67;2.33;;;23.70;99.90;;;;;;5015450;28;20309;-79
2023/01/27 12:25:30;;;;;;;8.23;2.50;;;23.70;99.90;;;;;;5016031;28;20180;-72
2023/01/27 12:28:04;;;;;;;6.93;2.50;;;23.60;99.90;;;;;;5015456;28;20234;-75
2023/01/27 12:30:36;;;;;;;13.60;2.73;;;23.60;99.90;;;;;;4997902;28;20594;-73
2023/01/27 12:33:30;;;;;;;15.13;2.87;;;23.60;99.90;;;;;;4997626;28;20247;-76
2023/01/27 12:36:05;;;;;;;9.90;2.50;;;23.60;99.90;;;;;;4998488;28;20178;-80
2023/01/27 12:38:35;;;;;;;10.93;2.37;;;23.60;99.90;;;;;;5015545;28;20519;-73
2023/01/27 12:41:09;;;;;;;9.57;3.77;;;23.50;99.90;;;;;;5015403;28;20182;-79
2023/01/27 12:44:08;;;;;;;7.13;2.50;;;23.40;99.90;;;;;;5013966;28;20217;-74
2023/01/27 12:46:39;;;;;;;9.53;2.50;;;23.40;99.90;;;;;;4997668;28;20182;-73
2023/01/27 12:49:14;;;;;;;9.73;3.13;;;23.50;99.90;;;;;;5015028;28;20271;-75
2023/01/27 12:51:53;;;;;;;10.07;3.13;;;23.50;99.90;;;;;;5015004;28;20173;-76
2023/01/27 12:54:26;;;;;;;9.23;2.60;;;23.50;99.90;;;;;;5015292;28;20240;-74
2023/01/27 12:57:00;;;;;;;15.20;3.20;;;23.40;99.90;;;;;;5014806;28;20644;-75
2023/01/27 12:59:28;;;;;;;8.43;2.43;;;23.40;99.90;;;;;;5012579;28;20225;-74
2023/01/27 13:02:21;;;;;;;5.97;2.30;;;23.40;99.90;;;;;;5014711;28;20628;-76
2023/01/27 13:05:01;;;;;;;10.57;2.93;;;23.50;99.90;;;;;;5014611;28;20192;-76
2023/01/27 13:07:39;;;;;;;7.10;2.23;;;23.50;99.90;;;;;;4997664;28;20181;-75
2023/01/27 13:10:16;;;;;;;9.53;2.17;;;23.50;99.90;;;;;;4997322;28;20272;-76
2023/01/27 13:12:58;;;;;;;7.80;2.40;;;23.50;99.90;;;;;;5015335;28;20643;-74
2023/01/27 13:15:30;;;;;;;13.27;2.90;;;23.50;99.90;;;;;;5015785;28;20185;-77
2023/01/27 13:18:13;;;;;;;11.23;2.60;;;23.60;99.90;;;;;;5015426;28;20231;-75
2023/01/27 13:20:45;;;;;;;6.67;2.90;;;23.60;99.90;;;;;;5015080;28;20178;-73
2023/01/27 13:23:42;;;;;;;7.67;2.50;;;23.60;99.90;;;;;;5015726;28;20256;-76
2023/01/27 13:26:10;;;;;;;7.97;2.50;;;23.50;99.90;;;;;;5015917;28;20177;-75
2023/01/27 13:29:12;;;;;;;9.03;2.73;;;23.50;99.90;;;;;;5000821;28;20719;-74
2023/01/27 13:31:51;;;;;;;6.07;2.30;;;23.50;99.90;;;;;;5014843;28;20181;-77
2023/01/27 13:34:43;;;;;;;8.27;2.90;;;23.40;99.90;;;;;;4997550;28;20666;-79
2023/01/27 13:37:17;;;;;;;8.17;2.60;;;23.40;99.90;;;;;;4997206;28;20243;-75
2023/01/27 13:40:00;;;;;;;8.43;3.37;;;23.40;99.90;;;;;;5014759;28;20198;-76
2023/01/27 13:42:43;;;;;;;10.40;2.93;;;23.30;99.90;;;;;;5014751;28;20198;-73